Ana Sayfa
METAR-TAF:

METAR-TAF

Havaalanları :

Kalgoorlie, Avustralya

Enlem: 30-47S, Boylam: 121-27E, yükseklik: 367 m

Güncel hava durumu gözlemi

Rapor saat 20:00 UTC de 40 dakika önce yapıldı.
Rüzgar güneydoğudan 5 kt
Sıcaklık 17°C
Nem 63%
Basınç 1016 hPa
Görüş mesafesi 10 km veya daha fazla

METAR: YPKG 192000Z AUTO 13005KT 9999 // NCD 17/10 Q1016

Saat: 04:40 (20:40 UTC)

Tahmin

Rapor saat 17:12 UTC de 3 saat ve 28 dakika önce yapıldı.
Ayın 19'si saat 18 UTC'den ayın 20'si saat 18 UTC'ye kadar geçerli Tahmin
Rüzgar doğudan 12 kt
Görüş mesafesi 10 km veya daha fazla
1500 m altında bulut yok ve kümülonimbus yok

TAF: YPKG 191712Z 1918/2018 10012KT CAVOK

4.000'den fazla havaalanı için hava durumu gözlemleri ve tahminleri (METAR ve TAF raporları).

Kullanılabilir istasyonlar harita üzerinde sarı ve kırmızı noktalarla gösterilir.

İstasyonun adını görmek için fareyi noktanın üzerinde gezdirin.

Sonrasında hava gözlem ve tahminlerini görmek için tıklayın.

Haritayı değiştirmek için: yaklaştırmak için siyah artı işaretli yeşil düğmeye ve uzaklaştırmak için de eksi işaretli düğmeye hızla tıklayın; bitişik haritalar için yeşil okları kullanın.


METAR-TAF: